Time;durP1;ratioP1;P1;durP2;ratioP2;P2;SDS_P1;SDS_P2;PMS_P1;PMS_P2;Temp;Humidity;BMP_temperature;BMP_pressure;BME280_temperature;BME280_humidity;BME280_pressure;Samples;Min_cycle;Max_cycle;Signal;HPM_P1;HPM_P2
2023/03/15 00:00:43;;;;;;;8.45;2.08;;;1.30;89.70;;;;;;5074678;28;20041;-81
2023/03/15 00:03:10;;;;;;;7.03;1.42;;;1.30;87.10;;;;;;5072336;28;20052;-81
2023/03/15 00:05:35;;;;;;;12.23;1.85;;;1.30;85.30;;;;;;5073210;28;20693;-85
2023/03/15 00:08:02;;;;;;;8.05;1.50;;;1.30;80.40;;;;;;5053408;28;20084;-82
2023/03/15 00:10:28;;;;;;;8.32;1.65;;;1.30;71.10;;;;;;5069009;28;20076;-82
2023/03/15 00:12:54;;;;;;;6.15;1.17;;;1.20;69.20;;;;;;5071657;28;20078;-83
2023/03/15 00:15:21;;;;;;;6.50;1.98;;;1.30;74.30;;;;;;5062167;28;20076;-81
2023/03/15 00:17:46;;;;;;;9.95;1.20;;;1.20;78.40;;;;;;5038196;28;20486;-84
2023/03/15 00:20:18;;;;;;;7.13;1.50;;;1.30;81.20;;;;;;5044478;28;20044;-82
2023/03/15 00:22:44;;;;;;;4.25;1.30;;;1.20;87.90;;;;;;5061609;28;20051;-82
2023/03/15 00:25:10;;;;;;;10.77;1.45;;;1.40;88.70;;;;;;5038916;28;20059;-83
2023/03/15 00:27:36;;;;;;;4.43;1.30;;;1.40;84.90;;;;;;5070553;28;20085;-82
2023/03/15 00:30:02;;;;;;;8.43;1.33;;;1.50;84.70;;;;;;5080996;28;20469;-81
2023/03/15 00:32:28;;;;;;;5.20;1.27;;;1.60;84.90;;;;;;5037143;28;20119;-81
2023/03/15 00:34:54;;;;;;;10.77;1.40;;;1.80;82.10;;;;;;5038953;28;20132;-82
2023/03/15 00:37:20;;;;;;;6.15;1.23;;;1.70;76.40;;;;;;5021098;28;20394;-83
2023/03/15 00:39:47;;;;;;;6.00;1.52;;;1.80;72.50;;;;;;5059538;28;20043;-81
2023/03/15 00:42:14;;;;;;;8.13;1.13;;;1.90;66.30;;;;;;5052290;28;20409;-82
2023/03/15 00:44:44;;;;;;;5.63;1.17;;;2.00;62.50;;;;;;5060857;28;20059;-87
2023/03/15 00:47:11;;;;;;;8.10;0.90;;;1.90;58.90;;;;;;5054401;28;20052;-82
2023/03/15 00:49:38;;;;;;;9.25;1.65;;;1.90;42.60;;;;;;5080145;28;20122;-85
2023/03/15 00:52:04;;;;;;;8.00;1.33;;;1.80;42.90;;;;;;5062592;28;20512;-83
2023/03/15 00:54:32;;;;;;;8.48;1.20;;;1.70;43.70;;;;;;5044174;28;20083;-81
2023/03/15 00:56:59;;;;;;;13.00;1.42;;;1.70;49.50;;;;;;5071139;28;20040;-83
2023/03/15 00:59:27;;;;;;;5.10;1.50;;;1.60;52.90;;;;;;5051650;28;20052;-82
2023/03/15 01:01:52;;;;;;;6.47;1.08;;;1.70;56.70;;;;;;5069007;28;20047;-82
2023/03/15 01:04:18;;;;;;;7.32;1.05;;;1.60;58.30;;;;;;5070065;28;20398;-82
2023/03/15 01:06:44;;;;;;;9.30;2.00;;;1.60;55.60;;;;;;5062851;28;20402;-82
2023/03/15 01:09:09;;;;;;;11.38;1.23;;;1.60;52.50;;;;;;5066615;28;21618;-82
2023/03/15 01:11:35;;;;;;;10.55;1.38;;;1.60;47.70;;;;;;5070951;28;20056;-82
2023/03/15 01:14:03;;;;;;;9.07;1.50;;;1.60;41.60;;;;;;5050607;28;20058;-82
2023/03/15 01:16:29;;;;;;;9.82;1.63;;;1.70;36.40;;;;;;5036628;28;20057;-82
2023/03/15 01:18:56;;;;;;;13.85;2.08;;;1.50;32.50;;;;;;5036591;28;20111;-83
2023/03/15 01:21:22;;;;;;;5.38;0.90;;;1.50;32.10;;;;;;5086979;28;20123;-82
2023/03/15 01:23:49;;;;;;;8.55;1.00;;;1.50;32.40;;;;;;5035832;28;20059;-82
2023/03/15 01:26:16;;;;;;;11.00;1.58;;;1.40;38.20;;;;;;5053081;28;20080;-82
2023/03/15 01:28:42;;;;;;;8.10;1.15;;;1.40;37.80;;;;;;5076506;28;20036;-82
2023/03/15 01:31:24;;;;;;;7.88;1.33;;;1.40;38.80;;;;;;5056495;28;20384;-84
2023/03/15 01:33:50;;;;;;;17.90;1.90;;;1.50;43.20;;;;;;5069617;28;20059;-82
2023/03/15 01:36:16;;;;;;;9.70;1.05;;;1.40;47.20;;;;;;5044350;28;20049;-81
2023/03/15 01:38:41;;;;;;;10.63;2.45;;;1.50;45.40;;;;;;5070738;28;20040;-83
2023/03/15 01:41:08;;;;;;;10.73;1.65;;;1.40;45.20;;;;;;5048597;28;20067;-87
2023/03/15 01:43:34;;;;;;;9.05;1.40;;;1.40;45.70;;;;;;5035839;28;20033;-81
2023/03/15 01:46:14;;;;;;;6.63;1.40;;;1.40;47.60;;;;;;5053287;28;20887;-82
2023/03/15 01:48:49;;;;;;;10.77;1.23;;;1.50;52.90;;;;;;5068512;28;20044;-82
2023/03/15 01:51:32;;;;;;;10.18;1.30;;;1.60;55.90;;;;;;5049056;28;20080;-83
2023/03/15 01:54:06;;;;;;;6.75;0.80;;;1.50;48.40;;;;;;5053608;28;20542;-82
2023/03/15 01:56:37;;;;;;;13.43;0.90;;;1.40;44.60;;;;;;5065337;28;20071;-83
2023/03/15 01:59:07;;;;;;;8.60;1.20;;;1.40;40.00;;;;;;5060539;28;20087;-82
2023/03/15 02:01:35;;;;;;;7.68;1.10;;;1.30;36.30;;;;;;5052648;28;20060;-82
2023/03/15 02:04:08;;;;;;;12.02;1.75;;;1.20;30.00;;;;;;5046575;28;20692;-83
2023/03/15 02:06:34;;;;;;;9.65;1.13;;;1.10;26.30;;;;;;5050447;28;20135;-84
2023/03/15 02:09:08;;;;;;;5.70;1.10;;;1.00;26.40;;;;;;5055587;28;20084;-82
2023/03/15 02:11:34;;;;;;;8.65;1.58;;;0.90;26.20;;;;;;5055950;28;20474;-82
2023/03/15 02:14:03;;;;;;;8.13;1.05;;;0.80;27.00;;;;;;5056489;28;20430;-82
2023/03/15 02:16:30;;;;;;;9.32;1.20;;;0.90;32.90;;;;;;5065858;28;20744;-82
2023/03/15 02:18:56;;;;;;;15.13;1.70;;;0.90;37.70;;;;;;5041689;28;20398;-83
2023/03/15 02:21:48;;;;;;;13.55;1.77;;;0.80;46.20;;;;;;5071694;28;20044;-82
2023/03/15 02:24:42;;;;;;;7.78;1.25;;;0.90;51.80;;;;;;5063911;28;20404;-88
2023/03/15 02:27:08;;;;;;;7.63;1.35;;;0.90;62.50;;;;;;5053484;28;20088;-82
2023/03/15 02:29:34;;;;;;;9.32;1.08;;;0.80;64.50;;;;;;5050776;28;20106;-83
2023/03/15 02:32:03;;;;;;;4.95;1.05;;;0.80;68.90;;;;;;5058641;28;20052;-85
2023/03/15 02:34:30;;;;;;;6.38;1.10;;;0.80;72.20;;;;;;5051539;28;20060;-82
2023/03/15 02:36:56;;;;;;;15.20;1.40;;;0.80;73.80;;;;;;5051913;28;20040;-83
2023/03/15 02:39:23;;;;;;;8.50;1.20;;;0.80;73.30;;;;;;5060788;28;20098;-82
2023/03/15 02:41:53;;;;;;;10.80;1.25;;;0.80;69.60;;;;;;5048375;28;20041;-82
2023/03/15 02:44:31;;;;;;;11.52;1.67;;;0.70;71.30;;;;;;5061477;28;20040;-86
2023/03/15 02:47:04;;;;;;;10.52;1.65;;;0.70;69.40;;;;;;5065618;28;20045;-83
2023/03/15 02:49:35;;;;;;;15.25;2.42;;;0.60;70.70;;;;;;5078287;28;20056;-84
2023/03/15 02:52:01;;;;;;;15.25;2.00;;;0.60;74.60;;;;;;5052742;28;20466;-85
2023/03/15 02:54:26;;;;;;;11.18;1.27;;;0.70;80.10;;;;;;5061893;28;20091;-84
2023/03/15 02:56:52;;;;;;;10.38;1.33;;;0.60;83.60;;;;;;5061212;28;20092;-83
2023/03/15 02:59:18;;;;;;;10.98;1.15;;;0.60;77.80;;;;;;5055175;28;20045;-87
2023/03/15 03:01:44;;;;;;;19.42;2.42;;;0.60;76.40;;;;;;5050127;28;20040;-83
2023/03/15 03:04:11;;;;;;;8.30;1.10;;;0.50;74.90;;;;;;5063149;28;20405;-82
2023/03/15 03:06:36;;;;;;;12.30;1.23;;;0.50;74.40;;;;;;5056776;28;20053;-82
2023/03/15 03:09:03;;;;;;;10.27;1.50;;;0.50;71.70;;;;;;5068123;28;20045;-83
2023/03/15 03:11:29;;;;;;;8.75;1.33;;;0.50;72.00;;;;;;5054419;28;20053;-83
2023/03/15 03:13:55;;;;;;;4.03;1.23;;;0.50;68.40;;;;;;5071971;28;20044;-83
2023/03/15 03:16:21;;;;;;;6.35;1.60;;;0.40;68.70;;;;;;5075287;28;20601;-87
2023/03/15 03:18:48;;;;;;;6.72;1.42;;;0.40;65.30;;;;;;5047997;28;20054;-84
2023/03/15 03:21:14;;;;;;;6.18;1.33;;;0.40;63.20;;;;;;5049999;28;20048;-82
2023/03/15 03:23:39;;;;;;;11.35;1.50;;;0.40;59.40;;;;;;5066494;28;20056;-87
2023/03/15 03:26:15;;;;;;;11.63;1.92;;;0.40;58.50;;;;;;5057627;28;20042;-83
2023/03/15 03:28:43;;;;;;;10.25;1.67;;;0.40;53.30;;;;;;5075187;28;20079;-87
2023/03/15 03:31:18;;;;;;;20.90;3.40;;;0.30;49.10;;;;;;5058421;28;20533;-83
2023/03/15 03:33:44;;;;;;;9.00;1.85;;;0.40;45.90;;;;;;5061777;28;20635;-83
2023/03/15 03:36:11;;;;;;;10.30;2.20;;;0.30;42.60;;;;;;5054156;28;20143;-83
2023/03/15 03:38:41;;;;;;;10.25;1.63;;;0.30;39.00;;;;;;5055026;28;20037;-83
2023/03/15 03:41:09;;;;;;;10.35;2.17;;;0.20;35.50;;;;;;5068920;28;20045;-83
2023/03/15 03:43:35;;;;;;;5.70;1.08;;;0.20;35.80;;;;;;5056521;28;20437;-83
2023/03/15 03:46:02;;;;;;;4.80;0.98;;;0.20;36.30;;;;;;5048265;28;20673;-82
2023/03/15 03:48:28;;;;;;;11.48;1.33;;;0.10;31.40;;;;;;5056227;28;20052;-84
2023/03/15 03:50:54;;;;;;;5.82;1.20;;;0.10;32.70;;;;;;5072735;28;20052;-87
2023/03/15 03:53:19;;;;;;;6.60;1.92;;;0.30;28.90;;;;;;5056306;28;20060;-82
2023/03/15 03:55:45;;;;;;;6.82;0.90;;;0.10;27.40;;;;;;5044142;28;20497;-86
2023/03/15 03:58:11;;;;;;;11.43;1.10;;;0.10;27.60;;;;;;5044783;28;20493;-83
2023/03/15 04:00:37;;;;;;;9.77;1.10;;;0.10;25.20;;;;;;5077955;28;20033;-85
2023/03/15 04:03:03;;;;;;;9.98;1.00;;;0.20;24.70;;;;;;5055611;28;20519;-83
2023/03/15 04:05:29;;;;;;;5.60;1.70;;;0.10;26.20;;;;;;5055324;28;20047;-86
2023/03/15 04:07:55;;;;;;;9.40;1.90;;;-0.10;26.90;;;;;;5064036;28;20044;-83
2023/03/15 04:10:25;;;;;;;8.45;1.00;;;-0.10;29.40;;;;;;5053763;28;20131;-83
2023/03/15 04:12:55;;;;;;;7.45;1.00;;;-0.10;29.40;;;;;;5053923;28;20049;-83
2023/03/15 04:15:22;;;;;;;4.75;0.95;;;-0.10;29.50;;;;;;5066166;28;20041;-82
2023/03/15 04:17:54;;;;;;;6.93;1.05;;;-0.20;30.70;;;;;;5054053;28;20043;-83
2023/03/15 04:20:33;;;;;;;10.80;1.38;;;-0.20;31.20;;;;;;5074802;28;20053;-83
2023/03/15 04:22:59;;;;;;;6.80;1.13;;;-0.20;30.90;;;;;;5071766;28;20040;-83
2023/03/15 04:25:25;;;;;;;6.43;0.85;;;-0.30;32.00;;;;;;5069394;28;20393;-82
2023/03/15 04:27:57;;;;;;;7.13;1.05;;;-0.30;31.80;;;;;;5073771;28;20040;-82
2023/03/15 04:30:25;;;;;;;10.15;0.95;;;-0.40;35.10;;;;;;5062632;28;20376;-81
2023/03/15 04:32:57;;;;;;;8.35;1.17;;;-0.40;38.40;;;;;;5066231;28;20051;-83
2023/03/15 04:35:32;;;;;;;6.47;0.88;;;-0.30;41.10;;;;;;5077070;28;20067;-81
2023/03/15 04:37:57;;;;;;;4.82;1.00;;;-0.30;45.40;;;;;;5080964;28;20040;-82
2023/03/15 04:40:24;;;;;;;6.60;1.05;;;-0.20;45.10;;;;;;5039389;28;20501;-81
2023/03/15 04:42:51;;;;;;;7.97;1.00;;;-0.30;45.90;;;;;;5070578;28;20049;-81
2023/03/15 04:45:17;;;;;;;7.35;1.08;;;-0.20;43.50;;;;;;5050828;28;20055;-81
2023/03/15 04:47:43;;;;;;;5.63;1.05;;;-0.30;42.40;;;;;;5066301;28;20045;-81
2023/03/15 04:50:09;;;;;;;5.82;1.00;;;-0.30;42.10;;;;;;5071379;28;20444;-81
2023/03/15 04:52:35;;;;;;;13.50;1.33;;;-0.20;41.10;;;;;;5071388;28;20892;-88
2023/03/15 04:55:00;;;;;;;6.88;1.10;;;-0.30;39.80;;;;;;5071185;28;20052;-82
2023/03/15 04:57:26;;;;;;;6.78;1.00;;;-0.20;41.20;;;;;;5054939;28;20048;-82
2023/03/15 04:59:52;;;;;;;14.57;2.58;;;-0.30;37.70;;;;;;5060063;28;20075;-81
2023/03/15 05:02:17;;;;;;;6.88;0.95;;;-0.30;38.40;;;;;;5037360;28;20075;-82
2023/03/15 05:04:43;;;;;;;7.22;1.58;;;-0.20;36.20;;;;;;5061363;28;20048;-81
2023/03/15 05:07:09;;;;;;;7.40;1.48;;;-0.20;36.10;;;;;;5083776;28;20105;-81
2023/03/15 05:09:37;;;;;;;5.60;0.90;;;-0.20;34.00;;;;;;5050655;28;20044;-81
2023/03/15 05:12:06;;;;;;;8.55;1.05;;;-0.20;34.80;;;;;;5051722;28;20053;-81
2023/03/15 05:14:32;;;;;;;4.25;0.60;;;-0.20;31.00;;;;;;5065728;28;20041;-83
2023/03/15 05:16:58;;;;;;;12.68;1.23;;;-0.20;28.70;;;;;;5070542;28;20052;-81
2023/03/15 05:19:27;;;;;;;12.70;1.30;;;-0.20;27.90;;;;;;5054512;28;20051;-81
2023/03/15 05:21:56;;;;;;;7.30;0.98;;;-0.20;27.80;;;;;;5058897;28;20377;-82
2023/03/15 05:24:22;;;;;;;6.38;1.00;;;-0.20;27.60;;;;;;5070771;28;20175;-81
2023/03/15 05:26:47;;;;;;;12.15;1.05;;;-0.20;28.20;;;;;;5059524;28;20044;-82
2023/03/15 05:29:14;;;;;;;5.40;1.05;;;-0.20;27.60;;;;;;5043400;28;20043;-82
2023/03/15 05:31:40;;;;;;;6.00;1.05;;;-0.20;27.80;;;;;;5051686;28;20054;-87
2023/03/15 05:34:07;;;;;;;3.92;1.00;;;-0.20;26.90;;;;;;5035812;28;20128;-83
2023/03/15 05:36:33;;;;;;;8.20;0.93;;;-0.10;26.70;;;;;;5056007;28;20055;-81
2023/03/15 05:39:01;;;;;;;7.10;1.08;;;-0.30;25.50;;;;;;5057696;28;20048;-86
2023/03/15 05:41:27;;;;;;;13.60;1.38;;;-0.20;25.00;;;;;;5068258;28;20123;-83
2023/03/15 05:43:53;;;;;;;8.95;1.30;;;-0.40;24.90;;;;;;5064123;28;20127;-80
2023/03/15 05:46:21;;;;;;;7.63;0.95;;;-0.40;26.50;;;;;;5036380;28;20375;-82
2023/03/15 05:48:47;;;;;;;6.28;1.13;;;-0.40;26.30;;;;;;5058268;28;20052;-82
2023/03/15 05:51:13;;;;;;;8.20;1.13;;;-0.40;28.90;;;;;;5052356;28;20048;-82
2023/03/15 05:53:39;;;;;;;10.05;1.33;;;-0.30;33.60;;;;;;5069036;28;20094;-82
2023/03/15 05:56:05;;;;;;;5.10;0.90;;;-0.20;31.70;;;;;;5058591;28;20084;-82
2023/03/15 05:58:31;;;;;;;8.63;1.65;;;-0.30;29.10;;;;;;5037291;28;20053;-81
2023/03/15 06:00:57;;;;;;;6.45;1.10;;;-0.20;28.40;;;;;;5041809;28;20380;-82
2023/03/15 06:03:22;;;;;;;6.97;1.45;;;-0.10;26.90;;;;;;5035011;28;20076;-82
2023/03/15 06:05:48;;;;;;;6.75;1.00;;;-0.10;25.80;;;;;;5065830;28;20047;-81
2023/03/15 06:08:14;;;;;;;7.18;1.10;;;0.00;28.00;;;;;;5059208;28;20043;-81
2023/03/15 06:10:40;;;;;;;7.10;0.90;;;0.00;33.40;;;;;;5070497;28;20075;-81
2023/03/15 06:13:05;;;;;;;10.07;1.63;;;0.10;40.10;;;;;;5040563;28;20052;-80
2023/03/15 06:15:31;;;;;;;8.70;1.60;;;0.20;40.80;;;;;;5069331;28;20494;-81
2023/03/15 06:17:57;;;;;;;9.57;1.15;;;0.10;44.50;;;;;;5063332;28;20383;-80
2023/03/15 06:20:23;;;;;;;9.40;1.17;;;0.20;49.40;;;;;;5062642;28;20044;-80
2023/03/15 06:22:48;;;;;;;6.20;1.10;;;0.20;47.90;;;;;;5068882;28;20047;-84
2023/03/15 06:25:14;;;;;;;7.88;1.45;;;0.20;48.70;;;;;;5066639;28;20402;-80
2023/03/15 06:27:40;;;;;;;8.50;1.45;;;0.20;47.40;;;;;;5077528;28;20052;-81
2023/03/15 06:30:07;;;;;;;6.20;1.13;;;0.20;50.50;;;;;;5076782;28;20048;-81
2023/03/15 06:32:33;;;;;;;6.18;1.20;;;0.20;53.00;;;;;;5065840;28;20040;-80
2023/03/15 06:34:58;;;;;;;7.82;1.83;;;0.20;60.10;;;;;;5093193;28;20059;-80
2023/03/15 06:37:24;;;;;;;6.70;1.10;;;0.30;62.10;;;;;;5077563;28;20052;-80
2023/03/15 06:39:50;;;;;;;5.40;1.05;;;0.30;64.00;;;;;;5080697;28;20079;-85
2023/03/15 06:42:16;;;;;;;8.82;1.00;;;0.30;64.40;;;;;;5081067;28;20093;-85
2023/03/15 06:44:42;;;;;;;3.85;0.93;;;0.30;65.00;;;;;;5070657;28;20052;-81
2023/03/15 06:47:09;;;;;;;12.20;1.17;;;0.30;65.40;;;;;;5060211;28;20059;-79
2023/03/15 06:49:35;;;;;;;5.00;0.90;;;0.30;64.30;;;;;;5049039;28;20047;-80
2023/03/15 06:52:02;;;;;;;13.20;1.60;;;0.30;68.80;;;;;;5065977;28;20066;-83
2023/03/15 06:54:28;;;;;;;5.70;1.17;;;0.30;70.90;;;;;;5064570;28;20131;-81
2023/03/15 06:56:54;;;;;;;6.50;1.45;;;0.40;75.50;;;;;;5069695;28;20132;-85
2023/03/15 06:59:19;;;;;;;4.30;1.20;;;0.30;81.30;;;;;;5065267;28;20048;-81
2023/03/15 07:01:45;;;;;;;5.90;1.08;;;0.40;85.30;;;;;;5031055;28;20071;-86
2023/03/15 07:04:11;;;;;;;10.00;1.20;;;0.50;90.20;;;;;;5061291;28;20428;-79
2023/03/15 07:06:36;;;;;;;5.75;1.00;;;0.50;91.50;;;;;;5087460;28;20406;-85
2023/03/15 07:09:04;;;;;;;8.23;1.75;;;0.60;90.50;;;;;;5048248;28;20080;-81
2023/03/15 07:11:29;;;;;;;11.70;1.60;;;0.70;88.50;;;;;;5068973;28;20418;-80
2023/03/15 07:13:55;;;;;;;7.63;1.33;;;0.70;86.60;;;;;;5072893;28;20105;-87
2023/03/15 07:16:21;;;;;;;5.63;1.40;;;0.80;87.20;;;;;;5074446;28;20580;-81
2023/03/15 07:18:46;;;;;;;5.15;1.25;;;0.80;88.40;;;;;;5056150;28;20048;-82
2023/03/15 07:21:12;;;;;;;13.57;1.85;;;0.80;90.00;;;;;;5050429;28;20048;-81
2023/03/15 07:23:38;;;;;;;4.47;1.00;;;0.90;86.90;;;;;;5073117;28;20048;-80
2023/03/15 07:26:03;;;;;;;5.65;0.85;;;1.00;81.40;;;;;;5070258;28;20424;-80
2023/03/15 07:28:29;;;;;;;9.52;1.20;;;1.10;76.70;;;;;;5063201;28;20040;-84
2023/03/15 07:30:57;;;;;;;11.13;2.55;;;1.20;73.80;;;;;;5052320;28;20397;-81
2023/03/15 07:33:24;;;;;;;7.75;1.05;;;1.30;70.00;;;;;;5065326;28;20068;-81
2023/03/15 07:35:52;;;;;;;8.10;1.25;;;1.30;63.10;;;;;;5078707;28;20075;-81
2023/03/15 07:38:18;;;;;;;8.55;2.75;;;1.40;53.50;;;;;;5028296;28;20037;-82
2023/03/15 07:40:44;;;;;;;6.55;3.05;;;1.60;38.00;;;;;;5081465;28;20145;-80
2023/03/15 07:43:11;;;;;;;15.57;4.13;;;1.50;30.20;;;;;;5072592;28;20044;-81
2023/03/15 07:45:36;;;;;;;7.47;2.80;;;1.60;16.30;;;;;;5052056;28;20120;-81
2023/03/15 07:48:02;;;;;;;8.88;2.08;;;1.70;8.40;;;;;;5054744;28;20111;-81
2023/03/15 07:50:28;;;;;;;8.23;1.75;;;1.80;1.00;;;;;;5086208;28;20059;-81
2023/03/15 07:52:53;;;;;;;19.92;5.47;;;1.80;1.00;;;;;;5076833;28;20444;-81
2023/03/15 07:55:19;;;;;;;7.00;2.47;;;1.90;1.00;;;;;;5069657;28;20264;-81
2023/03/15 07:57:45;;;;;;;12.50;4.22;;;2.00;1.00;;;;;;5054005;28;20040;-84
2023/03/15 08:00:12;;;;;;;9.95;2.15;;;2.00;1.00;;;;;;5049776;28;20037;-82
2023/03/15 08:02:39;;;;;;;12.45;2.85;;;2.10;1.00;;;;;;5061323;28;20121;-81
2023/03/15 08:05:05;;;;;;;8.15;1.85;;;2.20;1.00;;;;;;5071840;28;20123;-81
2023/03/15 08:07:31;;;;;;;8.70;1.90;;;2.30;1.00;;;;;;5047779;28;20054;-84
2023/03/15 08:09:57;;;;;;;5.57;1.30;;;2.40;1.00;;;;;;5063235;28;20474;-81
2023/03/15 08:12:23;;;;;;;10.45;1.90;;;2.50;1.00;;;;;;5062294;28;20049;-81
2023/03/15 08:14:50;;;;;;;5.53;1.38;;;2.60;1.00;;;;;;5071157;28;20052;-81
2023/03/15 08:17:16;;;;;;;7.00;1.40;;;2.70;1.00;;;;;;5049536;28;20049;-81
2023/03/15 08:19:42;;;;;;;9.85;2.08;;;2.70;1.00;;;;;;5054251;28;20056;-82
2023/03/15 08:22:08;;;;;;;5.78;1.60;;;2.90;1.00;;;;;;5058634;28;20040;-84
2023/03/15 08:24:34;;;;;;;9.73;1.92;;;2.90;1.00;;;;;;5051323;28;20044;-81
2023/03/15 08:27:00;;;;;;;10.43;1.25;;;3.10;1.00;;;;;;5054438;28;20117;-84
2023/03/15 08:29:26;;;;;;;9.85;1.52;;;3.20;1.00;;;;;;5058302;28;20482;-82
2023/03/15 08:31:52;;;;;;;9.57;2.20;;;3.30;1.00;;;;;;5067221;28;20482;-81
2023/03/15 08:35:44;;;;;;;17.08;2.63;;;3.40;1.00;;;;;;5108626;27;20532;-82
2023/03/15 08:38:09;;;;;;;7.43;1.50;;;3.50;1.00;;;;;;5066856;28;20136;-80
2023/03/15 08:40:35;;;;;;;8.85;1.83;;;3.60;1.00;;;;;;5057869;28;20044;-81
2023/03/15 08:43:01;;;;;;;9.80;1.40;;;3.70;1.00;;;;;;5074769;28;20075;-81
2023/03/15 08:45:27;;;;;;;14.77;1.83;;;3.80;99.90;;;;;;5073517;28;20056;-83
2023/03/15 08:47:57;;;;;;;5.47;1.35;;;3.90;1.00;;;;;;5077803;28;20067;-80
2023/03/15 08:50:23;;;;;;;10.93;1.77;;;4.00;99.90;;;;;;5056207;28;20070;-81
2023/03/15 08:52:49;;;;;;;11.45;1.50;;;4.10;99.90;;;;;;5082531;28;20100;-80
2023/03/15 08:55:15;;;;;;;10.68;1.50;;;4.10;99.90;;;;;;5104813;28;20043;-81
2023/03/15 08:57:41;;;;;;;9.35;1.40;;;4.10;99.90;;;;;;5087085;28;20149;-83
2023/03/15 09:00:08;;;;;;;7.55;1.27;;;4.20;99.90;;;;;;5077911;28;20479;-86
2023/03/15 09:02:37;;;;;;;9.07;2.10;;;4.30;99.90;;;;;;5088906;28;20080;-82
2023/03/15 09:05:05;;;;;;;8.40;1.77;;;4.40;99.90;;;;;;5085234;28;20489;-80
2023/03/15 09:07:31;;;;;;;5.80;1.30;;;4.40;99.90;;;;;;5085752;28;20044;-89
2023/03/15 09:09:57;;;;;;;14.13;1.95;;;4.50;99.90;;;;;;5054477;28;20079;-81
2023/03/15 09:12:23;;;;;;;9.15;2.00;;;4.60;99.90;;;;;;5075170;28;20079;-84
2023/03/15 09:14:48;;;;;;;6.88;0.95;;;4.70;99.90;;;;;;5070519;28;20053;-82
2023/03/15 09:17:14;;;;;;;9.85;1.30;;;4.80;99.90;;;;;;5070711;28;20085;-82
2023/03/15 09:19:40;;;;;;;8.15;0.88;;;5.00;1.00;;;;;;5056372;28;20097;-83
2023/03/15 09:22:06;;;;;;;3.35;0.70;;;5.00;1.00;;;;;;5067941;28;20055;-83
2023/03/15 09:24:32;;;;;;;2.75;0.80;;;5.10;1.00;;;;;;5073395;28;20070;-84
2023/03/15 09:26:57;;;;;;;10.68;1.83;;;5.20;1.00;;;;;;5056077;28;20046;-82
2023/03/15 09:29:23;;;;;;;6.45;1.80;;;5.30;1.00;;;;;;5072649;28;20044;-82
2023/03/15 09:31:49;;;;;;;4.47;1.02;;;5.30;1.00;;;;;;5090656;28;20485;-82
2023/03/15 09:34:15;;;;;;;6.60;1.35;;;5.40;1.00;;;;;;5090326;28;20059;-84
2023/03/15 09:36:40;;;;;;;6.22;1.38;;;5.50;1.00;;;;;;5061147;28;20044;-82
2023/03/15 09:39:07;;;;;;;4.72;0.80;;;5.60;1.00;;;;;;5080073;28;20055;-83
2023/03/15 09:41:38;;;;;;;3.70;0.63;;;5.70;99.90;;;;;;5061638;28;20134;-83
2023/03/15 09:44:30;;;;;;;4.78;1.20;;;5.70;99.90;;;;;;5086052;28;20086;-82
2023/03/15 09:47:06;;;;;;;6.32;1.45;;;5.80;99.90;;;;;;5078588;28;20090;-83
2023/03/15 09:49:40;;;;;;;12.95;1.40;;;5.90;99.90;;;;;;5073048;28;20078;-83
2023/03/15 09:52:31;;;;;;;2.38;0.70;;;6.00;99.90;;;;;;5075241;28;20045;-82
2023/03/15 09:55:01;;;;;;;5.97;1.08;;;6.10;99.90;;;;;;5077512;28;20090;-82
2023/03/15 09:57:55;;;;;;;9.15;1.40;;;6.30;99.90;;;;;;5062605;28;20048;-83
2023/03/15 10:00:30;;;;;;;4.47;0.90;;;6.40;99.90;;;;;;5051705;28;20170;-84
2023/03/15 10:03:00;;;;;;;6.32;1.02;;;6.60;99.90;;;;;;5072293;28;20097;-82
2023/03/15 10:05:44;;;;;;;5.45;1.00;;;6.70;99.90;;;;;;5083026;28;20775;-82
2023/03/15 10:08:20;;;;;;;4.38;1.40;;;6.70;99.90;;;;;;5086176;28;20036;-82
2023/03/15 10:11:22;;;;;;;7.68;1.58;;;6.70;99.90;;;;;;5075760;28;20489;-84
2023/03/15 10:14:12;;;;;;;7.65;1.33;;;6.90;99.90;;;;;;5063944;28;20046;-83
2023/03/15 10:16:50;;;;;;;5.13;1.75;;;7.20;99.90;;;;;;5072935;28;20083;-87
2023/03/15 10:19:44;;;;;;;5.30;1.13;;;7.40;99.90;;;;;;5088974;28;20109;-87
2023/03/15 10:22:13;;;;;;;3.65;1.00;;;7.50;70.40;;;;;;5079454;28;20381;-83
2023/03/15 10:25:22;;;;;;;8.48;1.27;;;7.40;33.60;;;;;;5069775;28;20055;-83
2023/03/15 10:27:54;;;;;;;4.10;0.60;;;7.40;6.50;;;;;;5056014;28;20056;-89
2023/03/15 10:30:21;;;;;;;8.45;1.40;;;7.40;37.60;;;;;;5075568;28;20086;-83
2023/03/15 10:33:09;;;;;;;3.33;1.15;;;7.50;99.90;;;;;;5084546;28;20044;-81
2023/03/15 10:35:35;;;;;;;5.57;0.90;;;7.70;1.00;;;;;;5090048;28;20040;-81
2023/03/15 10:38:01;;;;;;;4.35;1.13;;;7.70;65.60;;;;;;5054254;28;20040;-82
2023/03/15 10:40:48;;;;;;;9.68;1.00;;;8.00;99.90;;;;;;5073583;28;20172;-81
2023/03/15 10:43:19;;;;;;;7.00;1.40;;;8.00;1.00;;;;;;5056149;28;20044;-82
2023/03/15 10:46:05;;;;;;;7.95;2.67;;;8.00;1.00;;;;;;5058498;28;20044;-82
2023/03/15 10:48:38;;;;;;;14.55;5.65;;;8.10;1.00;;;;;;5088575;28;20155;-82
2023/03/15 10:51:37;;;;;;;7.60;1.73;;;8.20;4.20;;;;;;5059882;28;20044;-81
2023/03/15 10:54:11;;;;;;;6.22;0.93;;;8.20;1.00;;;;;;5072093;28;20044;-82
2023/03/15 10:56:45;;;;;;;8.10;1.15;;;8.40;1.00;;;;;;5063101;28;20131;-84
2023/03/15 10:59:23;;;;;;;10.27;1.65;;;8.50;1.00;;;;;;5062441;28;20071;-83
2023/03/15 11:02:06;;;;;;;3.30;0.70;;;8.40;1.00;;;;;;5071074;28;20101;-82
2023/03/15 11:04:32;;;;;;;6.35;1.15;;;8.20;1.00;;;;;;5071311;28;20139;-82
2023/03/15 11:07:01;;;;;;;7.45;1.00;;;8.00;1.00;;;;;;5063315;28;20047;-83
2023/03/15 11:09:37;;;;;;;8.35;1.45;;;7.90;1.00;;;;;;5056057;28;20040;-82
2023/03/15 11:12:06;;;;;;;7.57;1.02;;;8.00;1.00;;;;;;5058197;28;20048;-82
2023/03/15 11:14:45;;;;;;;7.80;1.10;;;8.20;1.00;;;;;;5048444;28;20066;-84
2023/03/15 11:17:22;;;;;;;7.63;1.63;;;8.00;1.00;;;;;;5067292;28;20055;-83
2023/03/15 11:20:12;;;;;;;6.13;1.00;;;8.30;1.00;;;;;;5059365;28;20036;-82
2023/03/15 11:22:38;;;;;;;5.68;0.93;;;9.10;1.00;;;;;;5054791;28;20043;-82
2023/03/15 11:25:11;;;;;;;6.40;1.23;;;9.90;1.00;;;;;;5039401;28;20043;-82
2023/03/15 11:27:36;;;;;;;7.82;1.10;;;10.60;1.00;;;;;;5049413;28;20067;-83
2023/03/15 11:30:03;;;;;;;6.63;1.27;;;11.60;1.00;;;;;;5072584;28;20054;-83
2023/03/15 11:32:31;;;;;;;5.38;0.98;;;12.40;1.00;;;;;;5056030;28;20048;-83
2023/03/15 11:35:04;;;;;;;3.55;0.77;;;12.80;1.00;;;;;;5054071;28;20085;-82
2023/03/15 11:37:48;;;;;;;7.78;1.27;;;13.70;1.00;;;;;;5065275;28;20143;-87
2023/03/15 11:40:23;;;;;;;6.43;1.20;;;14.20;1.00;;;;;;5062923;28;20058;-82
2023/03/15 11:43:02;;;;;;;6.33;1.20;;;14.60;1.00;;;;;;5053422;28;20040;-83
2023/03/15 11:45:49;;;;;;;6.47;1.10;;;15.60;1.00;;;;;;5072967;28;20374;-86
2023/03/15 11:48:35;;;;;;;5.85;1.23;;;16.00;1.00;;;;;;5064549;28;20081;-84
2023/03/15 11:51:01;;;;;;;5.28;1.15;;;16.40;1.00;;;;;;5069103;28;20101;-84
2023/03/15 11:53:34;;;;;;;4.63;1.02;;;16.80;1.00;;;;;;5053676;28;20044;-82
2023/03/15 11:56:24;;;;;;;4.28;1.23;;;15.90;1.00;;;;;;5069436;28;20054;-83
2023/03/15 11:59:10;;;;;;;4.03;1.08;;;15.10;1.00;;;;;;5047382;28;20040;-83
2023/03/15 12:01:40;;;;;;;5.90;1.00;;;14.80;1.00;;;;;;5076515;28;20082;-83
2023/03/15 12:04:24;;;;;;;4.82;0.98;;;15.10;1.00;;;;;;5069218;28;20985;-82
2023/03/15 12:06:55;;;;;;;6.75;0.77;;;15.00;1.00;;;;;;5064893;28;20075;-83
2023/03/15 12:09:36;;;;;;;7.47;1.35;;;14.90;1.00;;;;;;5045818;28;20131;-82
2023/03/15 12:12:03;;;;;;;3.97;0.90;;;14.90;1.00;;;;;;5085474;28;20781;-82
2023/03/15 12:14:31;;;;;;;5.65;0.90;;;14.90;1.00;;;;;;5081135;28;20047;-82
2023/03/15 12:17:22;;;;;;;7.28;1.40;;;14.90;1.00;;;;;;5063176;28;20051;-82
2023/03/15 12:20:19;;;;;;;5.45;0.90;;;14.70;1.00;;;;;;5042111;28;20135;-82
2023/03/15 12:23:04;;;;;;;5.68;1.13;;;14.90;1.00;;;;;;5048570;28;20111;-83
2023/03/15 12:25:43;;;;;;;5.18;1.35;;;15.60;1.00;;;;;;5066090;28;20036;-84
2023/03/15 12:28:25;;;;;;;5.60;0.85;;;15.70;1.00;;;;;;5061849;28;20489;-82
2023/03/15 12:30:55;;;;;;;4.93;1.13;;;15.70;1.00;;;;;;5068003;28;20040;-85
2023/03/15 12:33:22;;;;;;;6.40;1.20;;;15.60;1.00;;;;;;5070001;28;20130;-83
2023/03/15 12:35:48;;;;;;;3.72;1.10;;;16.00;1.00;;;;;;5064213;28;20076;-81
2023/03/15 12:38:19;;;;;;;3.53;0.80;;;16.70;1.00;;;;;;5051296;28;20044;-82
2023/03/15 12:40:57;;;;;;;5.93;1.23;;;18.10;1.00;;;;;;5055412;28;20084;-82
2023/03/15 12:43:38;;;;;;;10.05;1.33;;;18.70;1.00;;;;;;5036656;28;20123;-83
2023/03/15 12:46:05;;;;;;;3.53;0.75;;;18.40;1.00;;;;;;5081391;28;20040;-82
2023/03/15 12:48:31;;;;;;;3.80;0.95;;;17.60;1.00;;;;;;5088236;28;20043;-83
2023/03/15 12:51:02;;;;;;;6.30;1.02;;;17.70;1.00;;;;;;5061822;28;20085;-82
2023/03/15 12:53:38;;;;;;;4.53;1.00;;;17.90;1.00;;;;;;5046912;28;20044;-83
2023/03/15 12:56:41;;;;;;;6.20;1.45;;;18.10;1.00;;;;;;5060549;28;20044;-81
2023/03/15 12:59:24;;;;;;;5.38;1.10;;;18.20;1.00;;;;;;5051592;28;20117;-84
2023/03/15 13:01:50;;;;;;;4.97;1.00;;;18.30;1.00;;;;;;5059432;28;20040;-82
2023/03/15 13:04:16;;;;;;;3.17;0.70;;;17.80;1.00;;;;;;5074921;28;20056;-82
2023/03/15 13:07:12;;;;;;;2.92;0.90;;;17.30;1.00;;;;;;5062281;28;20062;-82
2023/03/15 13:09:53;;;;;;;2.63;1.00;;;17.10;1.00;;;;;;5085509;28;20063;-81